sensor_id;sensor_type;location;lat;lon;timestamp;P1;durP1;ratioP1;P2;durP2;ratioP2
51907;SDS011;39320;53.214;6.556;2023-05-23T00:01:22;17.63;;;11.43;;
51907;SDS011;39320;53.214;6.556;2023-05-23T00:03:49;17.75;;;10.70;;
51907;SDS011;39320;53.214;6.556;2023-05-23T00:06:21;19.15;;;10.75;;
51907;SDS011;39320;53.214;6.556;2023-05-23T00:08:49;18.42;;;10.18;;
51907;SDS011;39320;53.214;6.556;2023-05-23T00:11:15;17.13;;;9.45;;
51907;SDS011;39320;53.214;6.556;2023-05-23T00:13:41;13.77;;;9.50;;
51907;SDS011;39320;53.214;6.556;2023-05-23T00:16:07;15.77;;;10.38;;
51907;SDS011;39320;53.214;6.556;2023-05-23T00:18:37;16.48;;;11.07;;
51907;SDS011;39320;53.214;6.556;2023-05-23T00:21:04;14.63;;;9.70;;
51907;SDS011;39320;53.214;6.556;2023-05-23T00:23:30;12.07;;;9.30;;
51907;SDS011;39320;53.214;6.556;2023-05-23T00:25:58;17.55;;;10.23;;
51907;SDS011;39320;53.214;6.556;2023-05-23T00:28:24;11.43;;;8.80;;
51907;SDS011;39320;53.214;6.556;2023-05-23T00:30:56;12.27;;;8.98;;
51907;SDS011;39320;53.214;6.556;2023-05-23T00:33:22;13.43;;;9.65;;
51907;SDS011;39320;53.214;6.556;2023-05-23T00:35:48;12.32;;;9.25;;
51907;SDS011;39320;53.214;6.556;2023-05-23T00:38:13;13.93;;;9.70;;
51907;SDS011;39320;53.214;6.556;2023-05-23T00:40:40;17.52;;;10.77;;
51907;SDS011;39320;53.214;6.556;2023-05-23T00:43:06;13.65;;;9.65;;
51907;SDS011;39320;53.214;6.556;2023-05-23T00:45:34;14.50;;;9.65;;
51907;SDS011;39320;53.214;6.556;2023-05-23T00:48:00;14.20;;;9.27;;
51907;SDS011;39320;53.214;6.556;2023-05-23T00:50:27;13.30;;;8.85;;
51907;SDS011;39320;53.214;6.556;2023-05-23T00:52:55;10.55;;;9.45;;
51907;SDS011;39320;53.214;6.556;2023-05-23T00:55:23;12.35;;;8.27;;
51907;SDS011;39320;53.214;6.556;2023-05-23T00:57:50;9.07;;;7.57;;
51907;SDS011;39320;53.214;6.556;2023-05-23T01:00:19;11.57;;;7.75;;
51907;SDS011;39320;53.214;6.556;2023-05-23T01:02:46;12.18;;;7.13;;
51907;SDS011;39320;53.214;6.556;2023-05-23T01:05:15;8.32;;;6.80;;
51907;SDS011;39320;53.214;6.556;2023-05-23T01:07:42;9.63;;;7.50;;
51907;SDS011;39320;53.214;6.556;2023-05-23T01:10:09;10.23;;;6.43;;
51907;SDS011;39320;53.214;6.556;2023-05-23T01:15:24;10.15;;;6.15;;
51907;SDS011;39320;53.214;6.556;2023-05-23T01:18:09;9.80;;;5.85;;
51907;SDS011;39320;53.214;6.556;2023-05-23T01:21:20;6.30;;;4.72;;
51907;SDS011;39320;53.214;6.556;2023-05-23T01:23:54;8.93;;;5.47;;
51907;SDS011;39320;53.214;6.556;2023-05-23T01:29:23;10.23;;;5.60;;
51907;SDS011;39320;53.214;6.556;2023-05-23T01:31:58;9.45;;;6.35;;
51907;SDS011;39320;53.214;6.556;2023-05-23T01:34:25;9.77;;;5.40;;
51907;SDS011;39320;53.214;6.556;2023-05-23T01:36:53;9.90;;;5.50;;
51907;SDS011;39320;53.214;6.556;2023-05-23T01:39:20;11.57;;;6.38;;
51907;SDS011;39320;53.214;6.556;2023-05-23T01:41:47;12.88;;;7.05;;
51907;SDS011;39320;53.214;6.556;2023-05-23T01:44:17;12.20;;;6.38;;
51907;SDS011;39320;53.214;6.556;2023-05-23T01:46:43;10.05;;;6.55;;
51907;SDS011;39320;53.214;6.556;2023-05-23T01:49:11;11.63;;;7.22;;
51907;SDS011;39320;53.214;6.556;2023-05-23T01:51:38;16.02;;;7.68;;
51907;SDS011;39320;53.214;6.556;2023-05-23T01:54:05;13.80;;;7.40;;
51907;SDS011;39320;53.214;6.556;2023-05-23T01:56:31;14.43;;;7.85;;
51907;SDS011;39320;53.214;6.556;2023-05-23T01:58:58;12.23;;;7.38;;
51907;SDS011;39320;53.214;6.556;2023-05-23T02:01:24;13.60;;;7.45;;
51907;SDS011;39320;53.214;6.556;2023-05-23T02:03:50;13.00;;;7.15;;
51907;SDS011;39320;53.214;6.556;2023-05-23T02:06:15;13.05;;;6.95;;
51907;SDS011;39320;53.214;6.556;2023-05-23T02:08:42;11.73;;;6.88;;
51907;SDS011;39320;53.214;6.556;2023-05-23T02:11:07;8.85;;;7.18;;
51907;SDS011;39320;53.214;6.556;2023-05-23T02:13:34;15.23;;;7.20;;
51907;SDS011;39320;53.214;6.556;2023-05-23T02:16:00;14.25;;;7.63;;
51907;SDS011;39320;53.214;6.556;2023-05-23T02:18:26;10.15;;;6.80;;
51907;SDS011;39320;53.214;6.556;2023-05-23T02:20:53;11.63;;;6.35;;
51907;SDS011;39320;53.214;6.556;2023-05-23T02:23:20;11.93;;;6.63;;
51907;SDS011;39320;53.214;6.556;2023-05-23T02:25:46;9.95;;;6.38;;
51907;SDS011;39320;53.214;6.556;2023-05-23T02:28:15;11.05;;;6.15;;
51907;SDS011;39320;53.214;6.556;2023-05-23T02:30:40;11.73;;;6.03;;
51907;SDS011;39320;53.214;6.556;2023-05-23T02:33:06;14.82;;;5.68;;
51907;SDS011;39320;53.214;6.556;2023-05-23T02:35:32;10.40;;;6.18;;
51907;SDS011;39320;53.214;6.556;2023-05-23T02:37:58;11.90;;;6.65;;
51907;SDS011;39320;53.214;6.556;2023-05-23T02:40:24;14.18;;;6.57;;
51907;SDS011;39320;53.214;6.556;2023-05-23T02:42:53;12.13;;;6.38;;
51907;SDS011;39320;53.214;6.556;2023-05-23T02:45:21;11.48;;;6.60;;
51907;SDS011;39320;53.214;6.556;2023-05-23T02:47:47;10.93;;;6.38;;
51907;SDS011;39320;53.214;6.556;2023-05-23T02:50:13;12.23;;;6.75;;
51907;SDS011;39320;53.214;6.556;2023-05-23T02:52:40;17.02;;;6.70;;
51907;SDS011;39320;53.214;6.556;2023-05-23T02:55:06;12.77;;;5.93;;
51907;SDS011;39320;53.214;6.556;2023-05-23T02:57:33;9.48;;;6.38;;
51907;SDS011;39320;53.214;6.556;2023-05-23T02:59:59;13.88;;;6.65;;
51907;SDS011;39320;53.214;6.556;2023-05-23T03:02:24;13.43;;;6.68;;
51907;SDS011;39320;53.214;6.556;2023-05-23T03:04:50;14.35;;;6.68;;
51907;SDS011;39320;53.214;6.556;2023-05-23T03:07:16;9.85;;;6.40;;
51907;SDS011;39320;53.214;6.556;2023-05-23T03:09:42;10.95;;;5.88;;
51907;SDS011;39320;53.214;6.556;2023-05-23T03:12:08;12.07;;;6.10;;
51907;SDS011;39320;53.214;6.556;2023-05-23T03:14:33;10.15;;;6.63;;
51907;SDS011;39320;53.214;6.556;2023-05-23T03:16:59;11.65;;;6.40;;
51907;SDS011;39320;53.214;6.556;2023-05-23T03:19:27;10.43;;;6.05;;
51907;SDS011;39320;53.214;6.556;2023-05-23T03:21:53;12.02;;;5.88;;
51907;SDS011;39320;53.214;6.556;2023-05-23T03:24:21;11.02;;;5.10;;
51907;SDS011;39320;53.214;6.556;2023-05-23T03:26:47;10.27;;;5.63;;
51907;SDS011;39320;53.214;6.556;2023-05-23T03:29:13;13.73;;;5.55;;
51907;SDS011;39320;53.214;6.556;2023-05-23T03:31:39;9.93;;;5.13;;
51907;SDS011;39320;53.214;6.556;2023-05-23T03:34:04;11.95;;;5.35;;
51907;SDS011;39320;53.214;6.556;2023-05-23T03:36:30;11.38;;;5.25;;
51907;SDS011;39320;53.214;6.556;2023-05-23T03:38:58;9.55;;;4.93;;
51907;SDS011;39320;53.214;6.556;2023-05-23T03:41:24;10.38;;;5.32;;
51907;SDS011;39320;53.214;6.556;2023-05-23T03:43:50;11.10;;;4.30;;
51907;SDS011;39320;53.214;6.556;2023-05-23T03:46:16;7.72;;;4.82;;
51907;SDS011;39320;53.214;6.556;2023-05-23T03:48:42;9.88;;;4.68;;
51907;SDS011;39320;53.214;6.556;2023-05-23T03:51:08;8.68;;;4.78;;
51907;SDS011;39320;53.214;6.556;2023-05-23T03:53:34;6.78;;;4.10;;
51907;SDS011;39320;53.214;6.556;2023-05-23T03:56:00;12.45;;;4.80;;
51907;SDS011;39320;53.214;6.556;2023-05-23T03:58:26;15.07;;;4.85;;
51907;SDS011;39320;53.214;6.556;2023-05-23T04:00:51;11.95;;;4.70;;
51907;SDS011;39320;53.214;6.556;2023-05-23T04:03:18;8.32;;;4.30;;
51907;SDS011;39320;53.214;6.556;2023-05-23T04:05:47;7.40;;;4.00;;
51907;SDS011;39320;53.214;6.556;2023-05-23T04:08:14;8.52;;;4.47;;
51907;SDS011;39320;53.214;6.556;2023-05-23T04:10:39;8.80;;;4.47;;
51907;SDS011;39320;53.214;6.556;2023-05-23T04:13:05;7.47;;;4.47;;
51907;SDS011;39320;53.214;6.556;2023-05-23T04:15:31;8.13;;;4.22;;
51907;SDS011;39320;53.214;6.556;2023-05-23T04:17:58;7.55;;;3.88;;
51907;SDS011;39320;53.214;6.556;2023-05-23T04:20:24;7.80;;;4.15;;
51907;SDS011;39320;53.214;6.556;2023-05-23T04:22:50;7.50;;;3.15;;
51907;SDS011;39320;53.214;6.556;2023-05-23T04:25:16;9.35;;;3.50;;
51907;SDS011;39320;53.214;6.556;2023-05-23T04:27:45;7.53;;;3.78;;
51907;SDS011;39320;53.214;6.556;2023-05-23T04:30:11;8.00;;;3.35;;
51907;SDS011;39320;53.214;6.556;2023-05-23T04:32:37;8.27;;;3.90;;
51907;SDS011;39320;53.214;6.556;2023-05-23T04:35:03;6.70;;;3.35;;
51907;SDS011;39320;53.214;6.556;2023-05-23T04:37:29;8.15;;;3.40;;
51907;SDS011;39320;53.214;6.556;2023-05-23T04:39:57;7.55;;;3.55;;
51907;SDS011;39320;53.214;6.556;2023-05-23T04:42:24;9.98;;;3.95;;
51907;SDS011;39320;53.214;6.556;2023-05-23T04:44:50;9.95;;;4.38;;
51907;SDS011;39320;53.214;6.556;2023-05-23T04:47:17;10.52;;;3.85;;
51907;SDS011;39320;53.214;6.556;2023-05-23T04:49:45;8.15;;;3.83;;
51907;SDS011;39320;53.214;6.556;2023-05-23T04:52:12;8.18;;;4.00;;
51907;SDS011;39320;53.214;6.556;2023-05-23T04:54:37;10.55;;;4.43;;
51907;SDS011;39320;53.214;6.556;2023-05-23T04:57:08;11.18;;;5.00;;
51907;SDS011;39320;53.214;6.556;2023-05-23T04:59:34;12.65;;;5.30;;
51907;SDS011;39320;53.214;6.556;2023-05-23T05:02:00;9.63;;;5.45;;
51907;SDS011;39320;53.214;6.556;2023-05-23T05:04:26;11.65;;;5.65;;
51907;SDS011;39320;53.214;6.556;2023-05-23T05:06:52;12.70;;;5.60;;
51907;SDS011;39320;53.214;6.556;2023-05-23T05:09:17;11.43;;;5.70;;
51907;SDS011;39320;53.214;6.556;2023-05-23T05:11:43;12.82;;;6.00;;
51907;SDS011;39320;53.214;6.556;2023-05-23T05:14:09;10.95;;;5.93;;
51907;SDS011;39320;53.214;6.556;2023-05-23T05:16:35;11.07;;;5.95;;
51907;SDS011;39320;53.214;6.556;2023-05-23T05:19:01;9.07;;;5.25;;
51907;SDS011;39320;53.214;6.556;2023-05-23T05:21:27;11.98;;;6.20;;
51907;SDS011;39320;53.214;6.556;2023-05-23T05:23:53;12.88;;;5.03;;
51907;SDS011;39320;53.214;6.556;2023-05-23T05:26:19;11.60;;;5.30;;
51907;SDS011;39320;53.214;6.556;2023-05-23T05:28:45;11.32;;;5.45;;
51907;SDS011;39320;53.214;6.556;2023-05-23T05:31:11;10.63;;;4.30;;
51907;SDS011;39320;53.214;6.556;2023-05-23T05:33:39;9.27;;;4.70;;
51907;SDS011;39320;53.214;6.556;2023-05-23T05:36:05;9.85;;;4.65;;
51907;SDS011;39320;53.214;6.556;2023-05-23T05:38:32;9.38;;;4.32;;
51907;SDS011;39320;53.214;6.556;2023-05-23T05:40:58;7.57;;;4.93;;
51907;SDS011;39320;53.214;6.556;2023-05-23T05:43:24;7.82;;;4.32;;
51907;SDS011;39320;53.214;6.556;2023-05-23T05:45:50;6.90;;;4.03;;
51907;SDS011;39320;53.214;6.556;2023-05-23T05:48:16;7.07;;;4.07;;
51907;SDS011;39320;53.214;6.556;2023-05-23T05:50:42;6.97;;;3.42;;
51907;SDS011;39320;53.214;6.556;2023-05-23T05:53:11;6.97;;;3.20;;
51907;SDS011;39320;53.214;6.556;2023-05-23T05:55:37;5.57;;;3.22;;
51907;SDS011;39320;53.214;6.556;2023-05-23T05:58:03;5.88;;;3.35;;
51907;SDS011;39320;53.214;6.556;2023-05-23T06:00:29;6.25;;;3.00;;
51907;SDS011;39320;53.214;6.556;2023-05-23T06:02:55;6.20;;;3.42;;
51907;SDS011;39320;53.214;6.556;2023-05-23T06:05:21;5.88;;;3.85;;
51907;SDS011;39320;53.214;6.556;2023-05-23T06:07:48;6.82;;;3.40;;
51907;SDS011;39320;53.214;6.556;2023-05-23T06:10:15;7.05;;;3.80;;
51907;SDS011;39320;53.214;6.556;2023-05-23T06:12:41;7.18;;;3.28;;
51907;SDS011;39320;53.214;6.556;2023-05-23T06:15:07;9.93;;;3.38;;
51907;SDS011;39320;53.214;6.556;2023-05-23T06:17:33;6.60;;;3.17;;
51907;SDS011;39320;53.214;6.556;2023-05-23T06:19:59;11.38;;;3.45;;
51907;SDS011;39320;53.214;6.556;2023-05-23T06:22:25;10.55;;;3.28;;
51907;SDS011;39320;53.214;6.556;2023-05-23T06:24:51;9.73;;;3.67;;
51907;SDS011;39320;53.214;6.556;2023-05-23T06:27:17;7.60;;;3.10;;
51907;SDS011;39320;53.214;6.556;2023-05-23T06:29:42;7.57;;;3.88;;
51907;SDS011;39320;53.214;6.556;2023-05-23T06:32:08;9.05;;;3.92;;
51907;SDS011;39320;53.214;6.556;2023-05-23T06:34:34;7.93;;;3.30;;
51907;SDS011;39320;53.214;6.556;2023-05-23T06:37:00;10.63;;;3.75;;
51907;SDS011;39320;53.214;6.556;2023-05-23T06:39:26;12.60;;;3.92;;
51907;SDS011;39320;53.214;6.556;2023-05-23T06:41:52;12.15;;;4.05;;
51907;SDS011;39320;53.214;6.556;2023-05-23T06:44:18;9.20;;;3.53;;
51907;SDS011;39320;53.214;6.556;2023-05-23T06:46:45;13.52;;;4.20;;
51907;SDS011;39320;53.214;6.556;2023-05-23T06:49:11;15.50;;;4.22;;
51907;SDS011;39320;53.214;6.556;2023-05-23T06:51:37;6.80;;;3.25;;
51907;SDS011;39320;53.214;6.556;2023-05-23T06:54:03;6.95;;;3.92;;
51907;SDS011;39320;53.214;6.556;2023-05-23T06:56:29;11.27;;;3.80;;
51907;SDS011;39320;53.214;6.556;2023-05-23T06:58:55;13.30;;;5.07;;
51907;SDS011;39320;53.214;6.556;2023-05-23T07:01:25;8.98;;;3.83;;
51907;SDS011;39320;53.214;6.556;2023-05-23T07:03:54;11.93;;;3.83;;
51907;SDS011;39320;53.214;6.556;2023-05-23T07:06:20;14.13;;;4.68;;
51907;SDS011;39320;53.214;6.556;2023-05-23T07:08:46;13.93;;;4.10;;
51907;SDS011;39320;53.214;6.556;2023-05-23T07:11:12;12.23;;;4.60;;
51907;SDS011;39320;53.214;6.556;2023-05-23T07:13:38;7.90;;;3.60;;
51907;SDS011;39320;53.214;6.556;2023-05-23T07:16:04;11.65;;;4.07;;
51907;SDS011;39320;53.214;6.556;2023-05-23T07:18:30;9.40;;;4.47;;
51907;SDS011;39320;53.214;6.556;2023-05-23T07:20:56;13.90;;;4.15;;
51907;SDS011;39320;53.214;6.556;2023-05-23T07:23:22;12.27;;;4.30;;
51907;SDS011;39320;53.214;6.556;2023-05-23T07:25:51;10.55;;;3.90;;
51907;SDS011;39320;53.214;6.556;2023-05-23T07:28:18;8.68;;;3.88;;
51907;SDS011;39320;53.214;6.556;2023-05-23T07:30:44;10.25;;;3.65;;
51907;SDS011;39320;53.214;6.556;2023-05-23T07:33:10;9.40;;;3.33;;
51907;SDS011;39320;53.214;6.556;2023-05-23T07:35:36;9.52;;;3.90;;
51907;SDS011;39320;53.214;6.556;2023-05-23T07:38:02;9.80;;;3.63;;
51907;SDS011;39320;53.214;6.556;2023-05-23T07:40:28;9.15;;;3.53;;
51907;SDS011;39320;53.214;6.556;2023-05-23T07:42:54;8.73;;;3.42;;
51907;SDS011;39320;53.214;6.556;2023-05-23T07:45:20;8.45;;;3.25;;
51907;SDS011;39320;53.214;6.556;2023-05-23T07:47:46;11.95;;;3.80;;
51907;SDS011;39320;53.214;6.556;2023-05-23T07:50:13;7.30;;;3.10;;
51907;SDS011;39320;53.214;6.556;2023-05-23T07:52:39;7.97;;;3.22;;
51907;SDS011;39320;53.214;6.556;2023-05-23T07:55:05;9.10;;;3.80;;
51907;SDS011;39320;53.214;6.556;2023-05-23T07:57:32;9.32;;;3.20;;
51907;SDS011;39320;53.214;6.556;2023-05-23T07:59:58;7.47;;;3.45;;
51907;SDS011;39320;53.214;6.556;2023-05-23T08:02:23;7.00;;;3.85;;
51907;SDS011;39320;53.214;6.556;2023-05-23T08:04:49;12.88;;;3.75;;
51907;SDS011;39320;53.214;6.556;2023-05-23T08:07:17;11.38;;;4.07;;
51907;SDS011;39320;53.214;6.556;2023-05-23T08:09:43;11.02;;;4.03;;
51907;SDS011;39320;53.214;6.556;2023-05-23T08:12:09;10.73;;;4.15;;
51907;SDS011;39320;53.214;6.556;2023-05-23T08:14:35;11.30;;;3.78;;
51907;SDS011;39320;53.214;6.556;2023-05-23T08:17:01;9.95;;;3.70;;
51907;SDS011;39320;53.214;6.556;2023-05-23T08:19:27;8.90;;;3.63;;
51907;SDS011;39320;53.214;6.556;2023-05-23T08:21:53;11.57;;;4.22;;
51907;SDS011;39320;53.214;6.556;2023-05-23T08:24:19;10.25;;;3.55;;
51907;SDS011;39320;53.214;6.556;2023-05-23T08:26:45;9.75;;;3.30;;
51907;SDS011;39320;53.214;6.556;2023-05-23T08:29:12;13.32;;;3.85;;
51907;SDS011;39320;53.214;6.556;2023-05-23T08:31:38;8.30;;;3.92;;
51907;SDS011;39320;53.214;6.556;2023-05-23T08:34:05;10.13;;;4.43;;
51907;SDS011;39320;53.214;6.556;2023-05-23T08:36:32;8.00;;;3.40;;
51907;SDS011;39320;53.214;6.556;2023-05-23T08:39:01;11.00;;;3.50;;
51907;SDS011;39320;53.214;6.556;2023-05-23T08:41:28;9.50;;;3.60;;
51907;SDS011;39320;53.214;6.556;2023-05-23T08:43:55;8.45;;;3.95;;
51907;SDS011;39320;53.214;6.556;2023-05-23T08:46:22;11.65;;;3.70;;
51907;SDS011;39320;53.214;6.556;2023-05-23T08:48:51;7.78;;;3.25;;
51907;SDS011;39320;53.214;6.556;2023-05-23T08:51:24;9.73;;;4.28;;
51907;SDS011;39320;53.214;6.556;2023-05-23T08:53:53;9.82;;;3.70;;
51907;SDS011;39320;53.214;6.556;2023-05-23T08:56:22;8.60;;;3.38;;
51907;SDS011;39320;53.214;6.556;2023-05-23T08:58:49;8.35;;;3.72;;
51907;SDS011;39320;53.214;6.556;2023-05-23T09:01:17;10.35;;;3.42;;
51907;SDS011;39320;53.214;6.556;2023-05-23T09:03:44;10.60;;;3.30;;
51907;SDS011;39320;53.214;6.556;2023-05-23T09:06:10;11.32;;;3.95;;
51907;SDS011;39320;53.214;6.556;2023-05-23T09:08:37;10.93;;;3.80;;
51907;SDS011;39320;53.214;6.556;2023-05-23T09:11:03;9.32;;;3.60;;
51907;SDS011;39320;53.214;6.556;2023-05-23T09:13:30;9.95;;;3.55;;
51907;SDS011;39320;53.214;6.556;2023-05-23T09:16:00;7.03;;;3.35;;
51907;SDS011;39320;53.214;6.556;2023-05-23T09:18:35;10.65;;;4.32;;
51907;SDS011;39320;53.214;6.556;2023-05-23T09:21:02;12.80;;;4.57;;
51907;SDS011;39320;53.214;6.556;2023-05-23T09:23:29;13.98;;;4.18;;
51907;SDS011;39320;53.214;6.556;2023-05-23T09:25:56;8.88;;;3.10;;
51907;SDS011;39320;53.214;6.556;2023-05-23T09:28:26;6.47;;;3.35;;
51907;SDS011;39320;53.214;6.556;2023-05-23T09:30:59;9.02;;;3.28;;
51907;SDS011;39320;53.214;6.556;2023-05-23T09:33:35;9.50;;;3.95;;
51907;SDS011;39320;53.214;6.556;2023-05-23T09:36:05;11.70;;;3.65;;
51907;SDS011;39320;53.214;6.556;2023-05-23T09:38:33;7.53;;;2.92;;
51907;SDS011;39320;53.214;6.556;2023-05-23T09:41:06;8.57;;;3.20;;
51907;SDS011;39320;53.214;6.556;2023-05-23T09:43:32;13.27;;;4.25;;
51907;SDS011;39320;53.214;6.556;2023-05-23T09:46:11;8.00;;;3.10;;
51907;SDS011;39320;53.214;6.556;2023-05-23T09:48:37;6.63;;;3.15;;
51907;SDS011;39320;53.214;6.556;2023-05-23T09:51:07;7.32;;;3.00;;
51907;SDS011;39320;53.214;6.556;2023-05-23T09:53:34;8.70;;;2.97;;
51907;SDS011;39320;53.214;6.556;2023-05-23T09:56:03;13.35;;;4.05;;
51907;SDS011;39320;53.214;6.556;2023-05-23T09:58:31;11.50;;;3.55;;
51907;SDS011;39320;53.214;6.556;2023-05-23T10:00:59;8.15;;;2.92;;
51907;SDS011;39320;53.214;6.556;2023-05-23T10:03:30;8.27;;;2.75;;
51907;SDS011;39320;53.214;6.556;2023-05-23T10:06:07;7.50;;;3.03;;
51907;SDS011;39320;53.214;6.556;2023-05-23T10:08:44;10.77;;;3.55;;
51907;SDS011;39320;53.214;6.556;2023-05-23T10:13:44;7.57;;;3.45;;
51907;SDS011;39320;53.214;6.556;2023-05-23T10:16:22;11.10;;;4.15;;
51907;SDS011;39320;53.214;6.556;2023-05-23T10:18:59;9.10;;;3.50;;
51907;SDS011;39320;53.214;6.556;2023-05-23T10:21:37;7.63;;;3.53;;
51907;SDS011;39320;53.214;6.556;2023-05-23T10:24:09;8.55;;;3.17;;
51907;SDS011;39320;53.214;6.556;2023-05-23T10:26:36;9.18;;;3.42;;
51907;SDS011;39320;53.214;6.556;2023-05-23T10:29:02;7.88;;;3.60;;
51907;SDS011;39320;53.214;6.556;2023-05-23T10:31:29;7.43;;;3.05;;
51907;SDS011;39320;53.214;6.556;2023-05-23T10:33:59;9.25;;;3.78;;
51907;SDS011;39320;53.214;6.556;2023-05-23T10:36:36;9.70;;;3.42;;
51907;SDS011;39320;53.214;6.556;2023-05-23T10:39:32;9.45;;;3.35;;
51907;SDS011;39320;53.214;6.556;2023-05-23T10:42:04;10.85;;;3.38;;
51907;SDS011;39320;53.214;6.556;2023-05-23T10:44:35;9.43;;;3.53;;
51907;SDS011;39320;53.214;6.556;2023-05-23T10:47:02;8.70;;;3.30;;
51907;SDS011;39320;53.214;6.556;2023-05-23T10:49:50;10.13;;;2.90;;
51907;SDS011;39320;53.214;6.556;2023-05-23T10:52:18;7.13;;;2.72;;
51907;SDS011;39320;53.214;6.556;2023-05-23T10:54:52;6.50;;;2.80;;
51907;SDS011;39320;53.214;6.556;2023-05-23T10:57:19;10.52;;;2.70;;
51907;SDS011;39320;53.214;6.556;2023-05-23T10:59:48;8.00;;;3.00;;
51907;SDS011;39320;53.214;6.556;2023-05-23T11:02:18;7.50;;;3.05;;
51907;SDS011;39320;53.214;6.556;2023-05-23T11:14:12;10.97;;;3.93;;
51907;SDS011;39320;53.214;6.556;2023-05-23T11:16:33;6.05;;;3.08;;
51907;SDS011;39320;53.214;6.556;2023-05-23T11:21:57;5.78;;;3.20;;
51907;SDS011;39320;53.214;6.556;2023-05-23T11:27:17;8.75;;;3.47;;
51907;SDS011;39320;53.214;6.556;2023-05-23T11:29:58;5.40;;;2.85;;
51907;SDS011;39320;53.214;6.556;2023-05-23T11:32:33;9.43;;;3.40;;
51907;SDS011;39320;53.214;6.556;2023-05-23T11:35:00;10.40;;;3.60;;
51907;SDS011;39320;53.214;6.556;2023-05-23T11:37:28;8.13;;;3.70;;
51907;SDS011;39320;53.214;6.556;2023-05-23T11:39:55;7.32;;;3.30;;
51907;SDS011;39320;53.214;6.556;2023-05-23T11:42:21;6.25;;;3.40;;
51907;SDS011;39320;53.214;6.556;2023-05-23T11:44:51;9.60;;;3.28;;
51907;SDS011;39320;53.214;6.556;2023-05-23T11:47:17;8.00;;;3.25;;
51907;SDS011;39320;53.214;6.556;2023-05-23T11:49:44;7.68;;;2.63;;
51907;SDS011;39320;53.214;6.556;2023-05-23T11:52:11;9.10;;;2.80;;
51907;SDS011;39320;53.214;6.556;2023-05-23T11:54:39;7.30;;;2.72;;
51907;SDS011;39320;53.214;6.556;2023-05-23T11:57:08;7.20;;;3.30;;
51907;SDS011;39320;53.214;6.556;2023-05-23T11:59:34;11.60;;;4.07;;
51907;SDS011;39320;53.214;6.556;2023-05-23T12:02:01;11.90;;;3.72;;
51907;SDS011;39320;53.214;6.556;2023-05-23T12:04:27;6.50;;;2.95;;
51907;SDS011;39320;53.214;6.556;2023-05-23T12:06:53;6.55;;;2.28;;
51907;SDS011;39320;53.214;6.556;2023-05-23T12:09:19;9.15;;;3.13;;
51907;SDS011;39320;53.214;6.556;2023-05-23T12:11:47;7.95;;;2.75;;
51907;SDS011;39320;53.214;6.556;2023-05-23T12:14:13;9.23;;;3.00;;
51907;SDS011;39320;53.214;6.556;2023-05-23T12:16:44;6.60;;;2.95;;
51907;SDS011;39320;53.214;6.556;2023-05-23T12:19:11;9.30;;;3.03;;
51907;SDS011;39320;53.214;6.556;2023-05-23T12:24:11;6.95;;;2.92;;
51907;SDS011;39320;53.214;6.556;2023-05-23T12:26:51;8.68;;;3.25;;
51907;SDS011;39320;53.214;6.556;2023-05-23T12:29:30;9.13;;;3.50;;
51907;SDS011;39320;53.214;6.556;2023-05-23T12:31:58;9.80;;;3.35;;
51907;SDS011;39320;53.214;6.556;2023-05-23T12:34:25;13.93;;;3.22;;
51907;SDS011;39320;53.214;6.556;2023-05-23T12:36:57;9.60;;;3.08;;
51907;SDS011;39320;53.214;6.556;2023-05-23T12:39:24;7.80;;;3.03;;
51907;SDS011;39320;53.214;6.556;2023-05-23T12:42:06;7.25;;;2.50;;
51907;SDS011;39320;53.214;6.556;2023-05-23T12:44:33;6.80;;;2.60;;
51907;SDS011;39320;53.214;6.556;2023-05-23T12:46:59;9.80;;;2.80;;
51907;SDS011;39320;53.214;6.556;2023-05-23T12:49:25;8.48;;;2.83;;
51907;SDS011;39320;53.214;6.556;2023-05-23T12:51:51;9.75;;;2.88;;
51907;SDS011;39320;53.214;6.556;2023-05-23T12:54:16;8.88;;;3.67;;
51907;SDS011;39320;53.214;6.556;2023-05-23T12:56:42;8.77;;;3.67;;
51907;SDS011;39320;53.214;6.556;2023-05-23T12:59:08;10.00;;;2.75;;
51907;SDS011;39320;53.214;6.556;2023-05-23T13:01:34;9.63;;;2.92;;
51907;SDS011;39320;53.214;6.556;2023-05-23T13:04:00;8.63;;;3.47;;
51907;SDS011;39320;53.214;6.556;2023-05-23T13:06:26;5.88;;;2.40;;
51907;SDS011;39320;53.214;6.556;2023-05-23T13:08:52;7.13;;;2.20;;
51907;SDS011;39320;53.214;6.556;2023-05-23T13:11:21;7.25;;;3.22;;
51907;SDS011;39320;53.214;6.556;2023-05-23T13:13:50;8.00;;;3.03;;
51907;SDS011;39320;53.214;6.556;2023-05-23T13:16:16;7.30;;;2.65;;
51907;SDS011;39320;53.214;6.556;2023-05-23T13:18:45;5.10;;;2.50;;
51907;SDS011;39320;53.214;6.556;2023-05-23T13:21:12;10.00;;;3.38;;
51907;SDS011;39320;53.214;6.556;2023-05-23T13:23:38;8.38;;;3.42;;
51907;SDS011;39320;53.214;6.556;2023-05-23T13:26:04;6.38;;;2.22;;
51907;SDS011;39320;53.214;6.556;2023-05-23T13:28:31;5.90;;;2.10;;
51907;SDS011;39320;53.214;6.556;2023-05-23T13:30:57;6.25;;;2.60;;
51907;SDS011;39320;53.214;6.556;2023-05-23T13:33:23;10.35;;;2.78;;
51907;SDS011;39320;53.214;6.556;2023-05-23T13:35:56;7.22;;;2.72;;
51907;SDS011;39320;53.214;6.556;2023-05-23T13:38:22;7.35;;;3.80;;
51907;SDS011;39320;53.214;6.556;2023-05-23T13:40:48;10.32;;;2.92;;
51907;SDS011;39320;53.214;6.556;2023-05-23T13:43:15;8.15;;;2.65;;
51907;SDS011;39320;53.214;6.556;2023-05-23T13:45:41;7.00;;;2.60;;
51907;SDS011;39320;53.214;6.556;2023-05-23T13:48:07;5.85;;;2.30;;
51907;SDS011;39320;53.214;6.556;2023-05-23T13:50:33;6.97;;;2.63;;
51907;SDS011;39320;53.214;6.556;2023-05-23T13:52:59;7.68;;;2.70;;
51907;SDS011;39320;53.214;6.556;2023-05-23T13:55:25;6.15;;;2.38;;
51907;SDS011;39320;53.214;6.556;2023-05-23T13:57:51;5.50;;;2.58;;
51907;SDS011;39320;53.214;6.556;2023-05-23T14:00:17;5.40;;;2.28;;
51907;SDS011;39320;53.214;6.556;2023-05-23T14:02:43;8.38;;;2.38;;
51907;SDS011;39320;53.214;6.556;2023-05-23T14:05:09;8.63;;;2.75;;
51907;SDS011;39320;53.214;6.556;2023-05-23T14:07:35;9.55;;;2.60;;
51907;SDS011;39320;53.214;6.556;2023-05-23T14:10:00;12.40;;;2.70;;
51907;SDS011;39320;53.214;6.556;2023-05-23T14:12:26;10.98;;;3.22;;
51907;SDS011;39320;53.214;6.556;2023-05-23T14:14:52;6.43;;;2.85;;
51907;SDS011;39320;53.214;6.556;2023-05-23T14:17:18;11.27;;;3.42;;
51907;SDS011;39320;53.214;6.556;2023-05-23T14:19:44;9.43;;;2.97;;
51907;SDS011;39320;53.214;6.556;2023-05-23T14:22:11;8.90;;;2.97;;
51907;SDS011;39320;53.214;6.556;2023-05-23T14:24:37;9.23;;;2.63;;
51907;SDS011;39320;53.214;6.556;2023-05-23T14:27:03;7.25;;;3.30;;
51907;SDS011;39320;53.214;6.556;2023-05-23T14:29:29;7.80;;;3.13;;
51907;SDS011;39320;53.214;6.556;2023-05-23T14:31:55;10.45;;;3.70;;
51907;SDS011;39320;53.214;6.556;2023-05-23T14:34:20;8.40;;;2.65;;
51907;SDS011;39320;53.214;6.556;2023-05-23T14:36:46;6.00;;;2.17;;
51907;SDS011;39320;53.214;6.556;2023-05-23T14:39:12;10.30;;;2.65;;
51907;SDS011;39320;53.214;6.556;2023-05-23T14:41:38;6.85;;;2.70;;
51907;SDS011;39320;53.214;6.556;2023-05-23T14:44:04;6.47;;;2.53;;
51907;SDS011;39320;53.214;6.556;2023-05-23T14:46:30;6.68;;;2.50;;
51907;SDS011;39320;53.214;6.556;2023-05-23T14:49:02;5.90;;;2.45;;
51907;SDS011;39320;53.214;6.556;2023-05-23T14:51:27;7.97;;;2.42;;
51907;SDS011;39320;53.214;6.556;2023-05-23T14:53:53;7.63;;;2.80;;
51907;SDS011;39320;53.214;6.556;2023-05-23T14:56:19;5.38;;;2.22;;
51907;SDS011;39320;53.214;6.556;2023-05-23T14:58:47;9.50;;;2.50;;
51907;SDS011;39320;53.214;6.556;2023-05-23T15:01:13;4.32;;;2.08;;
51907;SDS011;39320;53.214;6.556;2023-05-23T15:03:39;6.03;;;2.50;;
51907;SDS011;39320;53.214;6.556;2023-05-23T15:06:05;6.97;;;2.45;;
51907;SDS011;39320;53.214;6.556;2023-05-23T15:08:34;9.30;;;2.60;;